EGMD Airport Information

Runway Information
Runway 03 Length 4938 ft width 121 ft
Elevation 10 ft Threshold 0 ft Heading 33
Runway 21 Length 4938 ft Width 121 ft
Elevation 12 ft Threshold 115 ft Heading 213
Runway 14 Length 2264 ft width 115 ft
Elevation 10 ft Threshold 0 ft Heading 138
Runway 32 Length 2264 ft Width 115 ft
Elevation 10 ft Threshold 0 ft Heading 318
Airport Frequencies
Type atis Name Frequency 129.225 MHZ
Type Lydd APP Name Lydd Appro Frequency 120.7 MHZ
Type TWR Name TWR Frequency 128.525 MHZ
Airport Navaids
Type VOR-DME Name Lydd Frequency 114050 KHZ
Type NDB Name Lydd Frequency 397 KHZ
Airport Weather Information & NOTAM
ADDS - METARS form results

(1838 UTC 24 May 2022)
Data provider http://aviationweather.gov/metar/data/
 
METAR text: EGMD 241820Z AUTO 04008KT 9999 FEW044/// 11/09 Q1010
Conditions at: EGMD (LYDD AIRPORT , GB) observed 1820 UTC 24 May 2022
Temperature: 11.0°C (52°F)
Dewpoint: 9.0°C (48°F) [RH = 87%]
Pressure (altimeter): 29.82 inches Hg (1010.0 mb)
Winds: from the NE (40 degrees) at 9 MPH (8 knots; 4.1 m/s)
Visibility: 6 or more miles (10+ km)
Ceiling: at least 12,000 feet AGL
Clouds: few clouds at 4400 feet AGL
Weather: no significant weather observed at this time

METAR text: EGMD 241750Z AUTO 34013KT 9999 FEW019/// BKN040/// 12/09 Q1011
Conditions at: EGMD (LYDD AIRPORT , GB) observed 1750 UTC 24 May 2022
Temperature: 12.0°C (54°F)
Dewpoint: 9.0°C (48°F) [RH = 82%]
Pressure (altimeter): 29.85 inches Hg (1011.0 mb)
Winds: from the NNW (340 degrees) at 15 MPH (13 knots; 6.7 m/s)
Visibility: 6 or more miles (10+ km)
Ceiling: 4000 feet AGL
Clouds: few clouds at 1900 feet AGL
broken clouds at 4000 feet AGL
Weather: no significant weather observed at this time

Forecast for: AMD
Text: TAF AMD EGMD 241759Z 2418/2503 27008KT 9999 SCT040
Forecast period: 1800 UTC 24 May 2022 to 0300 UTC 25 May 2022
Forecast type: FROM: standard forecast or significant change
Winds: from the W (270 degrees) at 9 MPH (8 knots; 4.1 m/s)
Visibility: 6 or more miles (10+ km)
Ceiling: at least 12,000 feet AGL
Clouds: scattered clouds at 4000 feet AGL
Weather: no significant weather forecast for this period
Text: TEMPO 2418/2419 34015G25KT 8000 SHRA
Forecast period: 1800 to 1900 UTC 24 May 2022
Forecast type: TEMPORARY: The following changes expected for less than half the time period
Winds: from the NNW (340 degrees) at 17 MPH (15 knots; 7.7 m/s)
gusting to 29 MPH (25 knots; 12.9 m/s)
Visibility: 5 miles (8 km)
Ceiling: unknown
Clouds: missing
Weather: SHRA  (rain showers)